Clarksville, Iowa
Current Conditions -  °F | °C
As of 10:15 AM on Monday 24 Nov 2014 (Local Time) from KCCY Reporting Station
Haze Haze  
Wind Chill:   Ceiling: 1300
Heat Index: 21°   Visibility: 5mi
Dew Point: 18°   Wind: 25mph
Humidity: 86%   Direction: 300°WNW
Pressure: 29.44"   Gusts: 37mph
Location:  42.78°N, 92.67°W
Report Text: KCCY 241615Z AUTO 30022G32KT 5SM HZ OVC013 M06/M08 A2944 RMK AO2
Loading
Personal Weather Stations






























Interactive Weather Map New forecast layout! Learn more

10-Day Weather Forecast

Advertisements
Track Severe Weather on mobile